createdAt,value
2022-12-31T00:03:00.185Z,2.12
2022-12-31T00:08:08.459Z,2.09
2022-12-31T00:13:15.431Z,2.05
2022-12-31T00:18:21.761Z,2.08
2022-12-31T00:23:29.681Z,2.05
2022-12-31T00:28:37.670Z,1.99
2022-12-31T00:33:45.093Z,2.02
2022-12-31T00:38:55.231Z,1.99
2022-12-31T00:44:02.445Z,1.99
2022-12-31T00:49:09.060Z,1.98
2022-12-31T00:54:17.180Z,1.96
2022-12-31T00:59:23.599Z,1.96
2022-12-31T01:04:29.977Z,1.95
2022-12-31T01:09:37.761Z,1.93
2022-12-31T01:14:44.099Z,1.98
2022-12-31T01:19:50.632Z,1.96
2022-12-31T01:24:58.721Z,1.94
2022-12-31T01:30:05.949Z,1.96
2022-12-31T01:35:12.460Z,1.97
2022-12-31T01:40:21.175Z,2.01
2022-12-31T01:45:28.756Z,2.03
2022-12-31T01:50:38.683Z,2.10
2022-12-31T01:55:52.317Z,2.14
2022-12-31T02:01:00.835Z,2.19
2022-12-31T02:06:16.024Z,2.27
2022-12-31T02:11:30.184Z,2.28
2022-12-31T02:16:46.442Z,2.29
2022-12-31T02:22:05.414Z,2.35
2022-12-31T02:27:21.279Z,2.42
2022-12-31T02:32:40.529Z,2.44
2022-12-31T02:37:54.923Z,2.49
2022-12-31T02:43:01.398Z,2.69
2022-12-31T02:48:38.773Z,2.75
2022-12-31T02:54:26.810Z,2.87
2022-12-31T02:59:57.254Z,2.99
2022-12-31T03:05:06.739Z,3.13
2022-12-31T03:10:13.547Z,3.25
2022-12-31T03:15:22.898Z,3.31
2022-12-31T03:20:52.193Z,3.42
2022-12-31T03:25:59.930Z,3.47
2022-12-31T03:31:07.339Z,3.56
2022-12-31T03:36:17.313Z,3.61
2022-12-31T03:41:24.037Z,3.73
2022-12-31T03:46:30.566Z,3.78
2022-12-31T03:51:38.342Z,3.86
2022-12-31T03:56:45.251Z,3.88
2022-12-31T04:01:51.703Z,3.95
2022-12-31T04:06:59.594Z,4.00
2022-12-31T04:12:07.474Z,4.02
2022-12-31T04:17:13.682Z,4.08
2022-12-31T04:22:21.919Z,4.12
2022-12-31T04:27:28.317Z,4.21
2022-12-31T04:32:34.768Z,4.22
2022-12-31T04:37:42.556Z,4.29
2022-12-31T04:42:48.862Z,4.29
2022-12-31T04:47:55.333Z,4.27
2022-12-31T04:53:03.095Z,4.36
2022-12-31T04:58:09.413Z,4.44
2022-12-31T05:03:15.825Z,4.46
2022-12-31T05:08:23.985Z,4.53
2022-12-31T05:13:33.383Z,4.53
2022-12-31T05:18:40.275Z,4.58
2022-12-31T05:23:48.418Z,4.62
2022-12-31T05:28:55.618Z,4.66
2022-12-31T05:34:01.955Z,4.70
2022-12-31T05:39:09.989Z,4.76
2022-12-31T05:44:16.623Z,4.77
2022-12-31T05:49:23.481Z,4.80
2022-12-31T05:54:31.292Z,4.86
2022-12-31T05:59:37.679Z,4.90
2022-12-31T06:04:44.431Z,4.93
2022-12-31T06:09:52.437Z,4.96
2022-12-31T06:14:58.983Z,5.05
2022-12-31T06:20:12.185Z,5.09
2022-12-31T06:25:21.044Z,5.09
2022-12-31T06:30:27.274Z,5.10
2022-12-31T06:35:33.808Z,5.12
2022-12-31T06:40:41.692Z,5.12
2022-12-31T06:45:48.305Z,5.14
2022-12-31T06:50:55.809Z,5.21
2022-12-31T06:56:08.419Z,5.24
2022-12-31T07:01:38.925Z,5.32
2022-12-31T07:06:50.568Z,5.31
2022-12-31T07:12:08.180Z,5.38
2022-12-31T07:17:39.499Z,5.49
2022-12-31T07:22:47.245Z,5.51
2022-12-31T07:28:16.104Z,5.58
2022-12-31T07:33:53.290Z,5.65
2022-12-31T07:39:07.458Z,5.70
2022-12-31T07:44:35.822Z,5.70
2022-12-31T07:49:46.020Z,5.74
2022-12-31T07:54:52.746Z,5.77
2022-12-31T08:00:10.207Z,5.84
2022-12-31T08:05:28.712Z,5.88
2022-12-31T08:10:44.065Z,5.98
2022-12-31T08:15:53.061Z,6.02
2022-12-31T08:21:15.863Z,6.07
2022-12-31T08:26:35.923Z,6.05
2022-12-31T08:31:54.375Z,6.09
2022-12-31T08:37:06.418Z,6.14
2022-12-31T08:42:27.583Z,6.22
2022-12-31T08:47:44.333Z,6.28
2022-12-31T08:52:51.341Z,6.34
2022-12-31T08:58:20.484Z,6.46
2022-12-31T09:03:38.139Z,6.51
2022-12-31T09:08:52.825Z,6.55
2022-12-31T09:14:27.420Z,6.57
2022-12-31T09:19:35.300Z,6.59
2022-12-31T09:24:42.583Z,6.69
2022-12-31T09:29:59.083Z,6.71
2022-12-31T09:35:21.901Z,6.79
2022-12-31T09:41:10.483Z,6.86
2022-12-31T09:47:08.800Z,6.94
2022-12-31T09:52:24.490Z,7.01
2022-12-31T09:57:42.993Z,6.96
2022-12-31T10:03:18.140Z,6.99
2022-12-31T10:09:01.860Z,7.06
2022-12-31T10:14:31.839Z,7.15
2022-12-31T10:20:33.408Z,7.26
2022-12-31T10:26:18.928Z,7.45
2022-12-31T10:31:48.790Z,7.58
2022-12-31T10:37:00.015Z,7.74
2022-12-31T10:43:07.634Z,7.76
2022-12-31T10:48:58.231Z,7.91
2022-12-31T10:55:07.105Z,7.92
2022-12-31T11:00:23.857Z,7.93
2022-12-31T11:06:20.912Z,7.92
2022-12-31T11:11:42.469Z,7.95
2022-12-31T11:17:12.795Z,8.05
2022-12-31T11:22:42.114Z,8.10
2022-12-31T11:28:24.737Z,8.11
2022-12-31T11:33:50.754Z,8.23
2022-12-31T11:39:31.470Z,8.28
2022-12-31T11:45:04.547Z,8.39
2022-12-31T11:50:43.981Z,8.42
2022-12-31T11:56:04.246Z,8.51
2022-12-31T12:01:17.913Z,8.54
2022-12-31T12:06:31.454Z,8.56
2022-12-31T12:11:41.795Z,8.58
2022-12-31T12:16:48.208Z,8.62
2022-12-31T12:21:54.971Z,8.65
2022-12-31T12:27:03.171Z,8.66
2022-12-31T12:32:25.116Z,8.65
2022-12-31T12:37:35.748Z,8.70
2022-12-31T12:42:52.051Z,8.70
2022-12-31T12:48:02.827Z,8.68
2022-12-31T12:53:24.913Z,8.72
2022-12-31T12:58:50.462Z,8.66
2022-12-31T13:04:40.674Z,8.76
2022-12-31T13:10:16.649Z,8.71
2022-12-31T13:15:32.100Z,8.77
2022-12-31T13:20:46.566Z,8.80
2022-12-31T13:26:07.047Z,8.84
2022-12-31T13:31:23.357Z,8.91
2022-12-31T13:36:33.132Z,8.97
2022-12-31T13:41:45.898Z,9.01
2022-12-31T13:47:01.533Z,9.05
2022-12-31T13:52:26.178Z,9.07
2022-12-31T13:57:44.138Z,9.06
2022-12-31T14:03:08.563Z,9.14
2022-12-31T14:08:15.646Z,9.12
2022-12-31T14:13:48.738Z,9.12
2022-12-31T14:19:08.346Z,9.16
2022-12-31T14:24:26.513Z,9.16
2022-12-31T14:29:41.612Z,9.18
2022-12-31T14:35:01.047Z,9.19
2022-12-31T14:40:24.370Z,9.20
2022-12-31T14:45:47.702Z,9.29
2022-12-31T14:51:00.304Z,9.32
2022-12-31T14:56:28.676Z,9.31
2022-12-31T15:01:45.785Z,9.34
2022-12-31T15:07:01.765Z,9.34
2022-12-31T15:12:32.221Z,9.37
2022-12-31T15:17:54.426Z,9.42
2022-12-31T15:23:02.871Z,9.44
2022-12-31T15:28:24.850Z,9.43
2022-12-31T15:33:35.917Z,9.43
2022-12-31T15:38:46.197Z,9.49
2022-12-31T15:43:56.692Z,9.46
2022-12-31T15:49:11.764Z,9.49
2022-12-31T15:54:31.688Z,9.51
2022-12-31T15:59:38.597Z,9.54
2022-12-31T16:04:47.368Z,9.54
2022-12-31T16:09:59.938Z,9.57
2022-12-31T16:15:08.275Z,9.56
2022-12-31T16:20:30.522Z,9.52
2022-12-31T16:25:39.227Z,9.50
2022-12-31T16:30:45.867Z,9.41
2022-12-31T16:35:58.485Z,9.42
2022-12-31T16:41:20.997Z,9.38
2022-12-31T16:46:33.547Z,9.40
2022-12-31T16:51:41.373Z,9.40
2022-12-31T16:56:50.057Z,9.34
2022-12-31T17:01:58.219Z,9.35
2022-12-31T17:07:39.520Z,9.37
2022-12-31T17:13:26.350Z,9.33
2022-12-31T17:18:22.172Z,9.43
2022-12-31T17:23:33.431Z,9.49
2022-12-31T17:28:50.295Z,9.55
2022-12-31T17:34:23.619Z,9.63
2022-12-31T17:39:47.551Z,9.68
2022-12-31T17:45:00.641Z,9.70
2022-12-31T17:50:25.736Z,9.74
2022-12-31T17:55:32.461Z,9.79
2022-12-31T18:00:40.912Z,9.96
2022-12-31T18:05:47.722Z,10.08
2022-12-31T18:10:56.058Z,10.18
2022-12-31T18:16:03.925Z,10.24
2022-12-31T18:21:18.571Z,10.36
2022-12-31T18:26:26.828Z,10.45
2022-12-31T18:31:34.902Z,10.53
2022-12-31T18:36:41.654Z,10.58
2022-12-31T18:41:51.973Z,10.59
2022-12-31T18:47:01.414Z,10.60
2022-12-31T18:52:14.458Z,10.63
2022-12-31T18:57:21.647Z,10.74
2022-12-31T19:02:30.108Z,10.76
2022-12-31T19:07:36.719Z,10.75
2022-12-31T19:12:43.311Z,10.77
2022-12-31T19:17:51.995Z,10.78
2022-12-31T19:22:58.783Z,10.78
2022-12-31T19:28:08.173Z,10.78
2022-12-31T19:33:18.131Z,10.79
2022-12-31T19:38:29.165Z,10.82
2022-12-31T19:43:36.112Z,10.89
2022-12-31T19:48:44.561Z,10.86
2022-12-31T19:53:52.084Z,10.90
2022-12-31T19:58:58.443Z,10.93
2022-12-31T20:04:06.688Z,10.98
2022-12-31T20:09:14.007Z,11.06
2022-12-31T20:14:20.533Z,10.97
2022-12-31T20:19:28.291Z,10.99
2022-12-31T20:24:34.984Z,10.98
2022-12-31T20:29:41.345Z,10.99
2022-12-31T20:34:49.136Z,11.00
2022-12-31T20:39:55.542Z,11.01
2022-12-31T20:45:02.112Z,11.04
2022-12-31T20:50:12.695Z,11.04
2022-12-31T20:55:19.712Z,11.07
2022-12-31T21:00:26.109Z,11.12
2022-12-31T21:05:34.332Z,11.12
2022-12-31T21:10:40.856Z,11.12
2022-12-31T21:15:50.507Z,11.12
2022-12-31T21:20:58.154Z,11.15
2022-12-31T21:26:04.620Z,11.14
2022-12-31T21:31:14.491Z,11.12
2022-12-31T21:36:24.051Z,11.11
2022-12-31T21:41:49.491Z,11.11
2022-12-31T21:47:39.539Z,11.13
2022-12-31T21:52:48.665Z,11.11
2022-12-31T22:03:28.767Z,11.11
2022-12-31T22:08:37.355Z,11.06
2022-12-31T22:13:44.381Z,11.01
2022-12-31T22:18:52.330Z,11.00
2022-12-31T22:24:00.563Z,10.95
2022-12-31T22:29:07.227Z,10.97
2022-12-31T22:34:13.592Z,11.00
2022-12-31T22:39:44.533Z,11.00
2022-12-31T22:44:48.422Z,11.00
2022-12-31T22:49:55.028Z,10.99
2022-12-31T22:55:02.891Z,10.97
2022-12-31T23:00:15.933Z,10.97
2022-12-31T23:05:22.443Z,10.95
2022-12-31T23:10:47.486Z,10.95
2022-12-31T23:16:10.999Z,10.94
2022-12-31T23:21:36.116Z,10.97
2022-12-31T23:26:44.551Z,10.99
2022-12-31T23:31:51.256Z,10.98
2022-12-31T23:36:58.161Z,10.95
2022-12-31T23:42:06.597Z,10.96
2022-12-31T23:47:13.109Z,10.96
2022-12-31T23:52:19.543Z,10.92
2022-12-31T23:57:27.723Z,10.94
